San Marcos Municipal Airport
KHYI : rendu visible

Aérodrome :











RETROUVEZ-NOUS SUR...

 
LOGIN :

S'inscrire | Disclaimer

   EN    FR    IT 

 









Légende :    VFR   VFR Marginal   IFR   IFR Intensif   IFR Très Intensif
Visi : 
Plafond : 
>= 8 km
>= 3000ft
5 à 8 km
1000 à 3000 ft
1500m à 5 km
500 à 1000 ft
800 à 1500m
200 à 500 ft
< 800m
< 200 ft
Symboles :   Orages  Brouillard  Fortes neiges  Fortes précipitations  Vent > 20 kt






- Altitude de l'aérodrome : 597 ft


KHYI - San Marcos Municipal

DERNIER METAR :
  • 200405Z AUTO 15005KT 10SM BKN020 16/13 A2998 RMK AO2

METARs EXPIRÉS :
  • 200356Z AUTO 16006KT 10SM SCT018 15/12 A2998 RMK AO2 SLP147 T01500122
  • 200256Z AUTO 15007KT 10SM CLR 16/12 A2998 RMK AO2 SLP145 T01560117 53011
  • 200156Z AUTO 15008KT 10SM CLR 17/13 A2996 RMK AO2 SLP141 T01720128

TAF N/A



MET'MAP, la Météo Aéronautique d'un coup d'oeil ! - Copyright ORBIFLY Décembre 2007 - Disclaimer

ORBIFLY MET'MAP TEAM :

Programmation & Développement : Alexandra Zaïnal
Conception & Développement : Baudouin d'Aumeries
Co-Programmation & Développement : Marc-Olivier Méhu
Soutien technique & logistique : Manuel Goepfert

Contact : metmap@orbifly.com




SOURCES & CREDITS :

   NOAA       Earth
Advisory